TOM9KN EGPF-GCTS
Flight info
| Callsign | TOM9KN |
|---|---|
| Flight time | N/A |
| Altitude | 34000 |
| Route | NORBO L186 TRN P600 BLACA DCT NIMAT DCT DUB DCT SUTEX DCT ELTIG/M078F340 DCT LASNO T9 BEGAS/N0442F340 DCT RIPEL/N0440F350 DCT DIDIT DCT PARAV DCT OBESA DCT ORTIS |
| Aircraft | B738/M-SDE2E3FGHIRWXY/LB1 |
Departure
| Time | 2026-01-19 17:10 |
|---|---|
| Airport | Glasgow Airport (EGPF) |
Arrival
| Time | N/A |
|---|---|
| Airport | Tenerife Sur Airport (GCTS) |
| Time | Latitude | Longitude | Altitude | Speed | Heading |
|---|---|---|---|---|---|
| 2026-01-19 16:45 | 55.86665 | -4.43712 | 28 ft | 0 kts | 241° |
| 2026-01-19 17:02 | 55.86666 | -4.43711 | 28 ft | 1 kts | 241° |
| 2026-01-19 17:02 | 55.86672 | -4.43688 | 28 ft | 3 kts | 250° |
| 2026-01-19 17:03 | 55.86665 | -4.43593 | 28 ft | 3 kts | 329° |
| 2026-01-19 17:03 | 55.86657 | -4.43587 | 28 ft | 1 kts | 344° |
| 2026-01-19 17:06 | 55.86693 | -4.43605 | 28 ft | 3 kts | 344° |
| 2026-01-19 17:06 | 55.86679 | -4.43855 | 28 ft | 19 kts | 226° |
| 2026-01-19 17:07 | 55.86439 | -4.44307 | 28 ft | 26 kts | 226° |
| 2026-01-19 17:07 | 55.86261 | -4.44640 | 28 ft | 9 kts | 231° |
| 2026-01-19 17:08 | 55.86316 | -4.44822 | 28 ft | 11 kts | 317° |
| 2026-01-19 17:08 | 55.86396 | -4.44829 | 28 ft | 14 kts | 44° |
| 2026-01-19 17:09 | 55.86943 | -4.43804 | 28 ft | 126 kts | 47° |
| 2026-01-19 17:09 | 55.88601 | -4.40657 | 495 ft | 209 kts | 48° |
| 2026-01-19 17:10 | 55.90832 | -4.36459 | 1561 ft | 235 kts | 49° |
| 2026-01-19 17:10 | 55.93353 | -4.32263 | 2638 ft | 266 kts | 29° |
| 2026-01-19 17:11 | 55.96966 | -4.32381 | 4154 ft | 274 kts | 324° |
| 2026-01-19 17:11 | 55.98567 | -4.38014 | 5614 ft | 264 kts | 260° |
| 2026-01-19 17:12 | 55.97241 | -4.44012 | 5931 ft | 261 kts | 240° |
| 2026-01-19 17:12 | 55.95670 | -4.49786 | 6090 ft | 261 kts | 240° |
| 2026-01-19 17:13 | 55.93605 | -4.55076 | 5950 ft | 256 kts | 229° |
| 2026-01-19 17:13 | 55.91451 | -4.60041 | 6519 ft | 252 kts | 229° |
| 2026-01-19 17:14 | 55.89210 | -4.65031 | 7469 ft | 259 kts | 216° |
| 2026-01-19 17:14 | 55.86213 | -4.68475 | 8102 ft | 261 kts | 210° |
| 2026-01-19 17:15 | 55.83124 | -4.71926 | 8606 ft | 260 kts | 210° |
| 2026-01-19 17:15 | 55.81597 | -4.73627 | 8851 ft | 258 kts | 209° |
| 2026-01-19 17:16 | 55.76387 | -4.75202 | 9632 ft | 258 kts | 181° |
| 2026-01-19 17:16 | 55.72783 | -4.75383 | 10121 ft | 260 kts | 182° |
| 2026-01-19 17:17 | 55.69178 | -4.75579 | 10576 ft | 258 kts | 182° |
| 2026-01-19 17:17 | 55.65480 | -4.75815 | 10685 ft | 263 kts | 182° |
| 2026-01-19 17:18 | 55.61882 | -4.76051 | 10675 ft | 257 kts | 182° |
| 2026-01-19 17:18 | 55.58277 | -4.76296 | 11031 ft | 259 kts | 182° |
| 2026-01-19 17:19 | 55.54677 | -4.76579 | 11529 ft | 260 kts | 183° |
| 2026-01-19 17:19 | 55.52866 | -4.76723 | 11770 ft | 260 kts | 183° |
| 2026-01-19 17:20 | 55.47447 | -4.77147 | 12524 ft | 259 kts | 183° |
| 2026-01-19 17:20 | 55.43848 | -4.77428 | 13037 ft | 259 kts | 183° |
| 2026-01-19 17:21 | 55.40268 | -4.77706 | 13547 ft | 259 kts | 183° |
| 2026-01-19 17:21 | 55.36592 | -4.77992 | 14072 ft | 276 kts | 183° |
| 2026-01-19 17:22 | 55.32559 | -4.78410 | 14573 ft | 304 kts | 189° |
| 2026-01-19 17:22 | 55.28383 | -4.80866 | 15084 ft | 332 kts | 205° |
| 2026-01-19 17:22 | 55.26293 | -4.82742 | 15333 ft | 344 kts | 205° |
| 2026-01-19 17:23 | 55.19614 | -4.88706 | 16075 ft | 370 kts | 205° |
| 2026-01-19 17:24 | 55.15006 | -4.92724 | 16564 ft | 370 kts | 205° |
| 2026-01-19 17:24 | 55.10377 | -4.96724 | 17073 ft | 372 kts | 205° |
| 2026-01-19 17:25 | 55.05749 | -5.00756 | 17573 ft | 376 kts | 205° |
| 2026-01-19 17:25 | 55.01037 | -5.04861 | 18123 ft | 381 kts | 205° |
| 2026-01-19 17:26 | 54.96251 | -5.09019 | 18563 ft | 387 kts | 205° |
| 2026-01-19 17:26 | 54.91377 | -5.13240 | 19021 ft | 394 kts | 206° |
| 2026-01-19 17:26 | 54.88914 | -5.15366 | 19253 ft | 397 kts | 205° |
| 2026-01-19 17:27 | 54.83749 | -5.18958 | 19712 ft | 403 kts | 200° |
| 2026-01-19 17:28 | 54.75790 | -5.24029 | 20439 ft | 410 kts | 200° |
| 2026-01-19 17:28 | 54.70417 | -5.27472 | 20924 ft | 413 kts | 200° |
| 2026-01-19 17:29 | 54.65009 | -5.30947 | 21416 ft | 416 kts | 200° |
| 2026-01-19 17:29 | 54.59561 | -5.34443 | 21919 ft | 419 kts | 200° |
| 2026-01-19 17:30 | 54.54100 | -5.37939 | 22419 ft | 419 kts | 200° |
| 2026-01-19 17:30 | 54.48606 | -5.41444 | 22957 ft | 424 kts | 200° |
| 2026-01-19 17:30 | 54.45829 | -5.43212 | 23222 ft | 428 kts | 200° |
| 2026-01-19 17:31 | 54.40195 | -5.46790 | 23702 ft | 435 kts | 200° |
| 2026-01-19 17:32 | 54.31648 | -5.52199 | 24374 ft | 441 kts | 199° |
| 2026-01-19 17:32 | 54.25867 | -5.55845 | 24846 ft | 443 kts | 199° |
| 2026-01-19 17:33 | 54.20071 | -5.59489 | 25296 ft | 444 kts | 199° |
| 2026-01-19 17:34 | 54.00730 | -5.71572 | 26909 ft | 444 kts | 199° |
| 2026-01-19 17:37 | 53.77720 | -5.97154 | 29227 ft | 438 kts | 214° |
| 2026-01-19 17:38 | 53.60563 | -6.17902 | 30946 ft | 431 kts | 214° |
| 2026-01-19 17:41 | 53.38142 | -6.41761 | 33417 ft | 419 kts | 207° |
| 2026-01-19 17:42 | 53.20040 | -6.58526 | 33813 ft | 434 kts | 207° |
| 2026-01-19 17:45 | 52.96397 | -6.80259 | 33843 ft | 427 kts | 207° |
| 2026-01-19 17:46 | 52.78162 | -6.96736 | 33845 ft | 428 kts | 206° |
| 2026-01-19 17:49 | 52.54410 | -7.17146 | 33851 ft | 426 kts | 206° |
| 2026-01-19 17:51 | 52.33478 | -7.34985 | 33853 ft | 423 kts | 205° |
| 2026-01-19 17:53 | 52.12663 | -7.52535 | 33860 ft | 419 kts | 205° |
| 2026-01-19 17:54 | 51.94569 | -7.67641 | 33859 ft | 418 kts | 205° |
| 2026-01-19 17:57 | 51.71012 | -7.85355 | 33878 ft | 413 kts | 192° |